Time;durP1;ratioP1;P1;durP2;ratioP2;P2;SDS_P1;SDS_P2;PMS_P1;PMS_P2;Temp;Humidity;BMP_temperature;BMP_pressure;BME280_temperature;BME280_humidity;BME280_pressure;Samples;Min_cycle;Max_cycle;Signal;HPM_P1;HPM_P2
2022/06/02 00:01:29;;;;;;;;;;;;;;;;;;5060914;28;19909;-78
2022/06/02 00:04:16;;;;;;;;;;;;;;;;;;5072175;28;20336;-79
2022/06/02 00:07:03;;;;;;;;;;;;;;;;;;5082141;28;19915;-78
2022/06/02 00:09:49;;;;;;;;;;;;;;;;;;5077229;28;19909;-79
2022/06/02 00:12:36;;;;;;;;;;;;;;;;;;5077705;28;19912;-78
2022/06/02 00:15:23;;;;;;;;;;;;;;;;;;5066971;28;19912;-78
2022/06/02 00:18:10;;;;;;;;;;;;;;;;;;5063966;28;19924;-81
2022/06/02 00:20:56;;;;;;;;;;;;;;;;;;5061140;28;19947;-79
2022/06/02 00:23:43;;;;;;;;;;;;;;;;;;5068630;28;19926;-79
2022/06/02 00:26:29;;;;;;;;;;;;;;;;;;5069436;28;20287;-78
2022/06/02 00:29:16;;;;;;;;;;;;;;;;;;5069330;28;19919;-79
2022/06/02 00:32:03;;;;;;;;;;;;;;;;;;5071482;28;19916;-79
2022/06/02 00:34:49;;;;;;;;;;;;;;;;;;5068667;28;19925;-79
2022/06/02 00:37:36;;;;;;;;;;;;;;;;;;5068239;28;19909;-79
2022/06/02 00:40:22;;;;;;;;;;;;;;;;;;5068596;28;20375;-80
2022/06/02 00:43:10;;;;;;;;;;;;;;;;;;5082253;28;19921;-79
2022/06/02 00:45:56;;;;;;;;;;;;;;;;;;5070777;28;20408;-79
2022/06/02 00:48:43;;;;;;;;;;;;;;;;;;5063802;28;19913;-78
2022/06/02 00:51:29;;;;;;;;;;;;;;;;;;5064899;28;19915;-78
2022/06/02 00:57:30;;;;;;;;;;;;;;;;;;5079577;28;19912;-78
2022/06/02 01:00:17;;;;;;;;;;;;;;;;;;5062249;28;19909;-78
2022/06/02 01:03:03;;;;;;;;;;;;;;;;;;5066237;28;19939;-79
2022/06/02 01:05:50;;;;;;;;;;;;;;;;;;5067807;28;19912;-78
2022/06/02 01:08:36;;;;;;;;;;;;;;;;;;5069835;28;19935;-79
2022/06/02 01:11:23;;;;;;;;;;;;;;;;;;5077887;28;19919;-78
2022/06/02 01:14:09;;;;;;;;;;;;;;;;;;5069471;28;19909;-78
2022/06/02 01:16:56;;;;;;;;;;;;;;;;;;5074472;28;19950;-79
2022/06/02 01:19:44;;;;;;;;;;;;;;;;;;5068926;28;20371;-77
2022/06/02 01:22:31;;;;;;;;;;;;;;;;;;5082561;28;19924;-78
2022/06/02 01:25:17;;;;;;;;;;;;;;;;;;5057610;28;19912;-78
2022/06/02 01:28:04;;;;;;;;;;;;;;;;;;5069683;28;19918;-78
2022/06/02 01:30:50;;;;;;;;;;;;;;;;;;5069284;28;19939;-78
2022/06/02 01:33:37;;;;;;;;;;;;;;;;;;5068154;28;19923;-78
2022/06/02 01:36:23;;;;;;;;;;;;;;;;;;5067994;28;20590;-78
2022/06/02 01:39:10;;;;;;;;;;;;;;;;;;5066353;28;19915;-78
2022/06/02 01:41:58;;;;;;;;;;;;;;;;;;5068159;28;19912;-78
2022/06/02 01:44:45;;;;;;;;;;;;;;;;;;5069177;28;19923;-79
2022/06/02 01:47:32;;;;;;;;;;;;;;;;;;5055484;28;20300;-79
2022/06/02 01:50:19;;;;;;;;;;;;;;;;;;5066082;28;19912;-79
2022/06/02 01:53:05;;;;;;;;;;;;;;;;;;5079926;28;19999;-79
2022/06/02 01:55:52;;;;;;;;;;;;;;;;;;5074788;28;19912;-78
2022/06/02 01:58:38;;;;;;;;;;;;;;;;;;5071732;28;19913;-77
2022/06/02 02:01:25;;;;;;;;;;;;;;;;;;5056447;28;20284;-77
2022/06/02 02:04:11;;;;;;;;;;;;;;;;;;5069752;28;19924;-78
2022/06/02 02:06:57;;;;;;;;;;;;;;;;;;5075751;28;19931;-79
2022/06/02 02:09:44;;;;;;;;;;;;;;;;;;5068364;28;19920;-78
2022/06/02 02:12:30;;;;;;;;;;;;;;;;;;5071826;28;19927;-79
2022/06/02 02:15:17;;;;;;;;;;;;;;;;;;5063190;28;19975;-78
2022/06/02 02:18:03;;;;;;;;;;;;;;;;;;5071075;28;19908;-78
2022/06/02 02:20:50;;;;;;;;;;;;;;;;;;5072109;28;19916;-79
2022/06/02 02:23:36;;;;;;;;;;;;;;;;;;5069900;28;19931;-79
2022/06/02 02:26:23;;;;;;;;;;;;;;;;;;5071222;28;19913;-79
2022/06/02 02:29:10;;;;;;;;;;;;;;;;;;5068333;28;19915;-79
2022/06/02 02:31:56;;;;;;;;;;;;;;;;;;5066907;28;19912;-79
2022/06/02 02:34:43;;;;;;;;;;;;;;;;;;5073768;28;19927;-79
2022/06/02 02:37:29;;;;;;;;;;;;;;;;;;5072657;28;19916;-78
2022/06/02 02:40:16;;;;;;;;;;;;;;;;;;5084690;28;19920;-80
2022/06/02 02:43:03;;;;;;;;;;;;;;;;;;5071488;28;20316;-79
2022/06/02 02:45:51;;;;;;;;;;;;;;;;;;5070915;28;19916;-79
2022/06/02 02:48:38;;;;;;;;;;;;;;;;;;5069682;28;19998;-79
2022/06/02 02:51:24;;;;;;;;;;;;;;;;;;5071179;28;19935;-80
2022/06/02 02:54:11;;;;;;;;;;;;;;;;;;5071577;28;19916;-79
2022/06/02 02:56:57;;;;;;;;;;;;;;;;;;5070825;28;19915;-78
2022/06/02 02:59:45;;;;;;;;;;;;;;;;;;5071041;28;19915;-80
2022/06/02 03:02:32;;;;;;;;;;;;;;;;;;5070182;28;19916;-78
2022/06/02 03:05:19;;;;;;;;;;;;;;;;;;5084273;28;19913;-79
2022/06/02 03:08:05;;;;;;;;;;;;;;;;;;5061192;28;19915;-79
2022/06/02 03:10:52;;;;;;;;;;;;;;;;;;5083677;28;19917;-80
2022/06/02 03:13:38;;;;;;;;;;;;;;;;;;5070135;28;20275;-80
2022/06/02 03:16:25;;;;;;;;;;;;;;;;;;5067307;28;19919;-80
2022/06/02 03:19:11;;;;;;;;;;;;;;;;;;5068891;28;19916;-80
2022/06/02 03:21:58;;;;;;;;;;;;;;;;;;5080734;28;19909;-80
2022/06/02 03:24:44;;;;;;;;;;;;;;;;;;5087872;28;20426;-80
2022/06/02 03:27:31;;;;;;;;;;;;;;;;;;5068698;28;19916;-80
2022/06/02 03:30:17;;;;;;;;;;;;;;;;;;5054926;28;19915;-80
2022/06/02 03:33:04;;;;;;;;;;;;;;;;;;5072060;28;19916;-79
2022/06/02 03:35:50;;;;;;;;;;;;;;;;;;5073205;28;19956;-79
2022/06/02 03:38:38;;;;;;;;;;;;;;;;;;5067339;28;19909;-79
2022/06/02 03:41:25;;;;;;;;;;;;;;;;;;5070256;28;20395;-78
2022/06/02 03:44:11;;;;;;;;;;;;;;;;;;5075364;28;19931;-79
2022/06/02 03:46:58;;;;;;;;;;;;;;;;;;5063847;28;20368;-79
2022/06/02 03:49:44;;;;;;;;;;;;;;;;;;5066654;28;19917;-78
2022/06/02 03:52:31;;;;;;;;;;;;;;;;;;5074305;28;20137;-80
2022/06/02 03:55:17;;;;;;;;;;;;;;;;;;5072437;28;19915;-79
2022/06/02 03:58:04;;;;;;;;;;;;;;;;;;5077317;28;20275;-80
2022/06/02 04:00:51;;;;;;;;;;;;;;;;;;5077329;28;19908;-80
2022/06/02 04:03:37;;;;;;;;;;;;;;;;;;5070632;28;19927;-80
2022/06/02 04:06:24;;;;;;;;;;;;;;;;;;5069759;28;19934;-80
2022/06/02 04:09:10;;;;;;;;;;;;;;;;;;5067944;28;19915;-81
2022/06/02 04:15:02;;;;;;;;;;;;;;;;;;5062545;28;19908;-79
2022/06/02 04:17:49;;;;;;;;;;;;;;;;;;5073417;28;19927;-79
2022/06/02 04:20:35;;;;;;;;;;;;;;;;;;5068529;28;19912;-79
2022/06/02 04:23:22;;;;;;;;;;;;;;;;;;5068555;28;19928;-79
2022/06/02 04:26:09;;;;;;;;;;;;;;;;;;5068536;28;19931;-78
2022/06/02 04:28:56;;;;;;;;;;;;;;;;;;5072203;28;19923;-78
2022/06/02 04:31:43;;;;;;;;;;;;;;;;;;5076529;28;19916;-79
2022/06/02 04:34:29;;;;;;;;;;;;;;;;;;5066374;28;19921;-78
2022/06/02 04:37:16;;;;;;;;;;;;;;;;;;5056253;28;19927;-78
2022/06/02 04:40:03;;;;;;;;;;;;;;;;;;5098225;27;19912;-78
2022/06/02 04:42:49;;;;;;;;;;;;;;;;;;5086644;28;19916;-78
2022/06/02 04:45:36;;;;;;;;;;;;;;;;;;5087561;28;19920;-78
2022/06/02 04:48:22;;;;;;;;;;;;;;;;;;5094099;28;19908;-78
2022/06/02 04:51:10;;;;;;;;;;;;;;;;;;5091868;28;19919;-78
2022/06/02 04:53:57;;;;;;;;;;;;;;;;;;5097678;28;19915;-78
2022/06/02 04:56:43;;;;;;;;;;;;;;;;;;5085812;28;19912;-77
2022/06/02 04:59:30;;;;;;;;;;;;;;;;;;5094518;28;19915;-78
2022/06/02 05:02:17;;;;;;;;;;;;;;;;;;5100272;28;19912;-78
2022/06/02 05:05:03;;;;;;;;;;;;;;;;;;5082382;28;19931;-79
2022/06/02 05:07:50;;;;;;;;;;;;;;;;;;5094862;28;20390;-78
2022/06/02 05:10:36;;;;;;;;;;;;;;;;;;5091764;28;19912;-78
2022/06/02 05:13:23;;;;;;;;;;;;;;;;;;5087098;28;19908;-77
2022/06/02 05:16:09;;;;;;;;;;;;;;;;;;5088072;28;19908;-78
2022/06/02 05:18:55;;;;;;;;;;;;;;;;;;5091860;28;19908;-77
2022/06/02 05:21:42;;;;;;;;;;;;;;;;;;5066692;28;19923;-78
2022/06/02 05:24:28;;;;;;;;;;;;;;;;;;5089082;28;19926;-78
2022/06/02 05:27:15;;;;;;;;;;;;;;;;;;5087974;28;20355;-78
2022/06/02 05:30:02;;;;;;;;;;;;;;;;;;5087682;28;19923;-78
2022/06/02 05:32:48;;;;;;;;;;;;;;;;;;5081818;28;19908;-78
2022/06/02 05:35:34;;;;;;;;;;;;;;;;;;5093776;28;19924;-78
2022/06/02 05:38:21;;;;;;;;;;;;;;;;;;5091523;28;19911;-78
2022/06/02 05:41:07;;;;;;;;;;;;;;;;;;5093072;28;19997;-78
2022/06/02 05:43:57;;;;;;;;;;;;;;;;;;5100364;28;19947;-78
2022/06/02 05:46:43;;;;;;;;;;;;;;;;;;5098262;28;19918;-78
2022/06/02 05:49:34;;;;;;;;;;;;;;;;;;5101376;28;21338;-78
2022/06/02 05:52:22;;;;;;;;;;;;;;;;;;5090561;28;19915;-78
2022/06/02 05:55:09;;;;;;;;;;;;;;;;;;5095332;28;20268;-78
2022/06/02 05:57:55;;;;;;;;;;;;;;;;;;5090195;28;20284;-78
2022/06/02 06:00:42;;;;;;;;;;;;;;;;;;5096936;28;19916;-78
2022/06/02 06:03:29;;;;;;;;;;;;;;;;;;5090569;28;19923;-78
2022/06/02 06:06:18;;;;;;;;;;;;;;;;;;5094479;28;19935;-79
2022/06/02 06:09:05;;;;;;;;;;;;;;;;;;5081583;28;19934;-78
2022/06/02 06:11:51;;;;;;;;;;;;;;;;;;5079761;28;19924;-79
2022/06/02 06:14:38;;;;;;;;;;;;;;;;;;5093569;28;19909;-79
2022/06/02 06:17:24;;;;;;;;;;;;;;;;;;5090272;28;19912;-78
2022/06/02 06:20:12;;;;;;;;;;;;;;;;;;5091040;28;19908;-79
2022/06/02 06:22:59;;;;;;;;;;;;;;;;;;5088380;28;20395;-78
2022/06/02 06:25:45;;;;;;;;;;;;;;;;;;5091359;28;19908;-78
2022/06/02 06:28:32;;;;;;;;;;;;;;;;;;5105228;28;19923;-78
2022/06/02 06:31:18;;;;;;;;;;;;;;;;;;5096809;28;19908;-78
2022/06/02 06:34:06;;;;;;;;;;;;;;;;;;5103849;28;19922;-78
2022/06/02 06:36:53;;;;;;;;;;;;;;;;;;5091560;28;19914;-78
2022/06/02 06:39:39;;;;;;;;;;;;;;;;;;5093469;28;19908;-77
2022/06/02 06:42:26;;;;;;;;;;;;;;;;;;5093809;28;19918;-78
2022/06/02 06:45:12;;;;;;;;;;;;;;;;;;5093862;28;19916;-78
2022/06/02 06:47:59;;;;;;;;;;;;;;;;;;5095071;28;19916;-77
2022/06/02 06:50:46;;;;;;;;;;;;;;;;;;5088220;28;19915;-77
2022/06/02 06:53:32;;;;;;;;;;;;;;;;;;5096451;28;19912;-77
2022/06/02 06:56:19;;;;;;;;;;;;;;;;;;5089081;28;20303;-77
2022/06/02 06:59:06;;;;;;;;;;;;;;;;;;5082405;28;19908;-78
2022/06/02 07:01:52;;;;;;;;;;;;;;;;;;5115885;27;19915;-78
2022/06/02 07:04:38;;;;;;;;;;;;;;;;;;5099027;27;19920;-78
2022/06/02 07:07:26;;;;;;;;;;;;;;;;;;5093626;28;19919;-79
2022/06/02 07:10:13;;;;;;;;;;;;;;;;;;5089902;28;19912;-78
2022/06/02 07:13:01;;;;;;;;;;;;;;;;;;5080770;28;19938;-78
2022/06/02 07:15:48;;;;;;;;;;;;;;;;;;5089238;28;19923;-79
2022/06/02 07:18:34;;;;;;;;;;;;;;;;;;5087772;28;20280;-79
2022/06/02 07:21:21;;;;;;;;;;;;;;;;;;5090557;28;19915;-77
2022/06/02 07:24:10;;;;;;;;;;;;;;;;;;5088931;28;19965;-78
2022/06/02 07:26:56;;;;;;;;;;;;;;;;;;5093441;28;20009;-78
2022/06/02 07:29:43;;;;;;;;;;;;;;;;;;5089764;28;19916;-78
2022/06/02 07:32:29;;;;;;;;;;;;;;;;;;5088769;28;19919;-77
2022/06/02 07:35:17;;;;;;;;;;;;;;;;;;5086070;28;19920;-78
2022/06/02 07:38:04;;;;;;;;;;;;;;;;;;5085136;28;19914;-78
2022/06/02 07:40:50;;;;;;;;;;;;;;;;;;5086121;28;19931;-76
2022/06/02 07:43:38;;;;;;;;;;;;;;;;;;5086051;28;20389;-77
2022/06/02 07:46:24;;;;;;;;;;;;;;;;;;5094258;28;19915;-78
2022/06/02 07:49:11;;;;;;;;;;;;;;;;;;5093961;28;20429;-77
2022/06/02 07:51:57;;;;;;;;;;;;;;;;;;5081825;28;19922;-78
2022/06/02 07:54:43;;;;;;;;;;;;;;;;;;5093858;28;19958;-78
2022/06/02 07:57:31;;;;;;;;;;;;;;;;;;5083049;28;20705;-78
2022/06/02 08:00:18;;;;;;;;;;;;;;;;;;5090159;28;19924;-78
2022/06/02 08:03:06;;;;;;;;;;;;;;;;;;5088050;28;20358;-78
2022/06/02 08:05:52;;;;;;;;;;;;;;;;;;5099420;28;19926;-78
2022/06/02 08:08:39;;;;;;;;;;;;;;;;;;5084747;28;19920;-79
2022/06/02 08:11:25;;;;;;;;;;;;;;;;;;5086072;28;19912;-77
2022/06/02 08:14:12;;;;;;;;;;;;;;;;;;5082974;28;19912;-77
2022/06/02 08:16:58;;;;;;;;;;;;;;;;;;5078531;28;19914;-77
2022/06/02 08:19:45;;;;;;;;;;;;;;;;;;5085178;28;19914;-78
2022/06/02 08:22:31;;;;;;;;;;;;;;;;;;5082195;28;19908;-78
2022/06/02 08:25:24;;;;;;;;;;;;;;;;;;5092960;28;19916;-78
2022/06/02 08:28:10;;;;;;;;;;;;;;;;;;5094389;28;19919;-77
2022/06/02 08:30:57;;;;;;;;;;;;;;;;;;5095452;28;20197;-78
2022/06/02 08:33:43;;;;;;;;;;;;;;;;;;5092210;28;19919;-78
2022/06/02 08:36:30;;;;;;;;;;;;;;;;;;5095584;28;19919;-77
2022/06/02 08:39:16;;;;;;;;;;;;;;;;;;5101569;28;19913;-77
2022/06/02 08:42:03;;;;;;;;;;;;;;;;;;5076643;28;19912;-77
2022/06/02 08:44:49;;;;;;;;;;;;;;;;;;5089305;28;19923;-78
2022/06/02 08:47:36;;;;;;;;;;;;;;;;;;5083615;28;20545;-78
2022/06/02 08:50:22;;;;;;;;;;;;;;;;;;5088669;28;19916;-77
2022/06/02 08:53:09;;;;;;;;;;;;;;;;;;5107225;27;20307;-77
2022/06/02 08:55:58;;;;;;;;;;;;;;;;;;5081089;28;19908;-76
2022/06/02 08:58:44;;;;;;;;;;;;;;;;;;5088357;28;19909;-76
2022/06/02 09:01:31;;;;;;;;;;;;;;;;;;5082275;28;19908;-77
2022/06/02 09:04:17;;;;;;;;;;;;;;;;;;5083506;28;19938;-77
2022/06/02 09:07:03;;;;;;;;;;;;;;;;;;5080086;28;19936;-78
2022/06/02 09:09:50;;;;;;;;;;;;;;;;;;5101281;28;20396;-78
2022/06/02 09:12:36;;;;;;;;;;;;;;;;;;5088754;28;20275;-78
2022/06/02 09:15:23;;;;;;;;;;;;;;;;;;5102661;28;19916;-78
2022/06/02 09:18:09;;;;;;;;;;;;;;;;;;5090798;28;19916;-78
2022/06/02 09:20:56;;;;;;;;;;;;;;;;;;5086882;28;20291;-77
2022/06/02 09:23:42;;;;;;;;;;;;;;;;;;5095716;28;19923;-78
2022/06/02 09:26:29;;;;;;;;;;;;;;;;;;5089024;28;20002;-77
2022/06/02 09:29:15;;;;;;;;;;;;;;;;;;5099372;28;19918;-76
2022/06/02 09:32:02;;;;;;;;;;;;;;;;;;5102258;28;19918;-77
2022/06/02 09:34:48;;;;;;;;;;;;;;;;;;5100089;28;19927;-77
2022/06/02 09:37:35;;;;;;;;;;;;;;;;;;5094102;28;19941;-77
2022/06/02 09:40:21;;;;;;;;;;;;;;;;;;5093159;28;19912;-77
2022/06/02 09:43:08;;;;;;;;;;;;;;;;;;5083089;28;20283;-77
2022/06/02 09:45:54;;;;;;;;;;;;;;;;;;5092928;28;19916;-77
2022/06/02 09:48:41;;;;;;;;;;;;;;;;;;5089952;28;20355;-78
2022/06/02 09:51:28;;;;;;;;;;;;;;;;;;5104078;28;19918;-78
2022/06/02 09:54:15;;;;;;;;;;;;;;;;;;5097755;28;20247;-77
2022/06/02 09:57:02;;;;;;;;;;;;;;;;;;5101226;28;19912;-78
2022/06/02 09:59:48;;;;;;;;;;;;;;;;;;5092124;28;20486;-78
2022/06/02 10:02:35;;;;;;;;;;;;;;;;;;5100677;28;19916;-77
2022/06/02 10:05:21;;;;;;;;;;;;;;;;;;5089390;28;19920;-78
2022/06/02 10:08:08;;;;;;;;;;;;;;;;;;5088207;28;19919;-77
2022/06/02 10:10:54;;;;;;;;;;;;;;;;;;5095989;28;19915;-77
2022/06/02 10:13:41;;;;;;;;;;;;;;;;;;5100796;28;19914;-78
2022/06/02 10:16:27;;;;;;;;;;;;;;;;;;5105411;27;19923;-78
2022/06/02 10:19:14;;;;;;;;;;;;;;;;;;5096024;28;19912;-76
2022/06/02 10:22:00;;;;;;;;;;;;;;;;;;5098415;28;20492;-77
2022/06/02 10:24:47;;;;;;;;;;;;;;;;;;5096134;28;19920;-79
2022/06/02 10:27:33;;;;;;;;;;;;;;;;;;5095567;28;19912;-77
2022/06/02 10:30:20;;;;;;;;;;;;;;;;;;5098475;28;19912;-77
2022/06/02 10:33:06;;;;;;;;;;;;;;;;;;5093207;28;19912;-78
2022/06/02 10:35:53;;;;;;;;;;;;;;;;;;5097175;28;19927;-77
2022/06/02 10:38:39;;;;;;;;;;;;;;;;;;5099177;28;19912;-78
2022/06/02 10:41:26;;;;;;;;;;;;;;;;;;5096761;28;19912;-78
2022/06/02 10:44:12;;;;;;;;;;;;;;;;;;5097423;28;19920;-78
2022/06/02 10:47:00;;;;;;;;;;;;;;;;;;5096757;28;19916;-77
2022/06/02 10:49:46;;;;;;;;;;;;;;;;;;5085811;28;20471;-77
2022/06/02 10:52:33;;;;;;;;;;;;;;;;;;5098615;28;19918;-77
2022/06/02 10:55:19;;;;;;;;;;;;;;;;;;5089581;28;19919;-77
2022/06/02 10:58:06;;;;;;;;;;;;;;;;;;5090895;28;19998;-77
2022/06/02 11:00:53;;;;;;;;;;;;;;;;;;5090202;28;20406;-77
2022/06/02 11:03:41;;;;;;;;;;;;;;;;;;5093779;28;19911;-78
2022/06/02 11:06:28;;;;;;;;;;;;;;;;;;5090406;28;19919;-77
2022/06/02 11:09:15;;;;;;;;;;;;;;;;;;5088290;28;20252;-77
2022/06/02 11:12:01;;;;;;;;;;;;;;;;;;5090133;28;19919;-77
2022/06/02 11:14:48;;;;;;;;;;;;;;;;;;5094799;28;19912;-76
2022/06/02 11:17:34;;;;;;;;;;;;;;;;;;5090416;28;20356;-77
2022/06/02 11:20:21;;;;;;;;;;;;;;;;;;5091978;28;19915;-77
2022/06/02 11:23:08;;;;;;;;;;;;;;;;;;5090911;28;19919;-76
2022/06/02 11:25:54;;;;;;;;;;;;;;;;;;5088666;28;19926;-77
2022/06/02 11:28:41;;;;;;;;;;;;;;;;;;5089155;28;19908;-77
2022/06/02 11:31:27;;;;;;;;;;;;;;;;;;5090786;28;19916;-77
2022/06/02 11:34:14;;;;;;;;;;;;;;;;;;5092272;28;19920;-76
2022/06/02 11:37:03;;;;;;;;;;;;;;;;;;5091563;28;19919;-76
2022/06/02 11:39:49;;;;;;;;;;;;;;;;;;5097045;28;19908;-76
2022/06/02 11:42:36;;;;;;;;;;;;;;;;;;5101113;28;19912;-77
2022/06/02 11:45:22;;;;;;;;;;;;;;;;;;5087637;28;20391;-78
2022/06/02 11:48:08;;;;;;;;;;;;;;;;;;5084677;28;19908;-77
2022/06/02 11:50:55;;;;;;;;;;;;;;;;;;5090201;28;20283;-77
2022/06/02 11:53:41;;;;;;;;;;;;;;;;;;5082518;28;19919;-77
2022/06/02 11:56:28;;;;;;;;;;;;;;;;;;5091535;28;19912;-77
2022/06/02 11:59:14;;;;;;;;;;;;;;;;;;5093705;28;19908;-77
2022/06/02 12:02:01;;;;;;;;;;;;;;;;;;5093240;28;19923;-77
2022/06/02 12:04:47;;;;;;;;;;;;;;;;;;5092396;28;19916;-77
2022/06/02 12:07:34;;;;;;;;;;;;;;;;;;5106654;28;19912;-76
2022/06/02 12:10:20;;;;;;;;;;;;;;;;;;5087053;28;19912;-76
2022/06/02 12:13:07;;;;;;;;;;;;;;;;;;5098241;28;19912;-76
2022/06/02 12:15:55;;;;;;;;;;;;;;;;;;5088925;28;19920;-75
2022/06/02 12:18:41;;;;;;;;;;;;;;;;;;5082163;28;19919;-76
2022/06/02 12:21:28;;;;;;;;;;;;;;;;;;5098397;28;19915;-76
2022/06/02 12:24:14;;;;;;;;;;;;;;;;;;5070418;28;20382;-76
2022/06/02 12:27:01;;;;;;;;;;;;;;;;;;5090078;28;20478;-77
2022/06/02 12:29:47;;;;;;;;;;;;;;;;;;5088410;28;19908;-77
2022/06/02 12:32:34;;;;;;;;;;;;;;;;;;5090143;28;20378;-77
2022/06/02 12:35:23;;;;;;;;;;;;;;;;;;5084158;28;19925;-76
2022/06/02 12:38:09;;;;;;;;;;;;;;;;;;5068717;28;19915;-77
2022/06/02 12:40:56;;;;;;;;;;;;;;;;;;5067864;28;19913;-77
2022/06/02 12:43:50;;;;;;;;;;;;;;;;;;5068734;28;19916;-78
2022/06/02 12:46:36;;;;;;;;;;;;;;;;;;5068567;28;20282;-77
2022/06/02 12:49:23;;;;;;;;;;;;;;;;;;5051334;28;19917;-77
2022/06/02 12:52:10;;;;;;;;;;;;;;;;;;5061325;28;19922;-77
2022/06/02 12:54:56;;;;;;;;;;;;;;;;;;5071575;28;20316;-77
2022/06/02 12:57:42;;;;;;;;;;;;;;;;;;5059203;28;19919;-77
2022/06/02 13:00:29;;;;;;;;;;;;;;;;;;5082150;28;20367;-75
2022/06/02 13:03:15;;;;;;;;;;;;;;;;;;5079398;28;19920;-76
2022/06/02 13:06:02;;;;;;;;;;;;;;;;;;5069830;28;19927;-77
2022/06/02 13:08:48;;;;;;;;;;;;;;;;;;5062630;28;19908;-77
2022/06/02 13:11:35;;;;;;;;;;;;;;;;;;5062405;28;20360;-78
2022/06/02 13:14:21;;;;;;;;;;;;;;;;;;5059720;28;19913;-79
2022/06/02 13:17:08;;;;;;;;;;;;;;;;;;5072305;28;19908;-78
2022/06/02 13:19:54;;;;;;;;;;;;;;;;;;5064976;28;20360;-78
2022/06/02 13:22:41;;;;;;;;;;;;;;;;;;5082365;28;19909;-77
2022/06/02 13:25:27;;;;;;;;;;;;;;;;;;5068397;28;20360;-78
2022/06/02 13:28:14;;;;;;;;;;;;;;;;;;5068998;28;19913;-78
2022/06/02 13:31:00;;;;;;;;;;;;;;;;;;5063340;28;19919;-78
2022/06/02 13:33:47;;;;;;;;;;;;;;;;;;5070973;28;19915;-79
2022/06/02 13:36:33;;;;;;;;;;;;;;;;;;5068728;28;20204;-77
2022/06/02 13:39:19;;;;;;;;;;;;;;;;;;5059791;28;19923;-76
2022/06/02 13:42:06;;;;;;;;;;;;;;;;;;5061871;28;19912;-77
2022/06/02 13:44:52;;;;;;;;;;;;;;;;;;5064426;28;20008;-78
2022/06/02 13:47:39;;;;;;;;;;;;;;;;;;5064123;28;19913;-78
2022/06/02 13:50:25;;;;;;;;;;;;;;;;;;5048825;28;19944;-77
2022/06/02 13:53:12;;;;;;;;;;;;;;;;;;5061599;28;19934;-77
2022/06/02 13:59:03;;;;;;;;;;;;;;;;;;5071167;28;20421;-77
2022/06/02 14:01:50;;;;;;;;;;;;;;;;;;5063260;28;19920;-77
2022/06/02 14:04:36;;;;;;;;;;;;;;;;;;5065236;28;19932;-79
2022/06/02 14:07:24;;;;;;;;;;;;;;;;;;5062517;28;19920;-77
2022/06/02 14:10:10;;;;;;;;;;;;;;;;;;5071084;28;19919;-77
2022/06/02 14:12:57;;;;;;;;;;;;;;;;;;5074583;28;19912;-77
2022/06/02 14:15:43;;;;;;;;;;;;;;;;;;5074192;28;19912;-77
2022/06/02 14:18:30;;;;;;;;;;;;;;;;;;5080337;28;19917;-77
2022/06/02 14:21:16;;;;;;;;;;;;;;;;;;5073689;28;19909;-78
2022/06/02 14:24:03;;;;;;;;;;;;;;;;;;5071588;28;19916;-76
2022/06/02 14:26:51;;;;;;;;;;;;;;;;;;5055238;28;19928;-77
2022/06/02 14:29:40;;;;;;;;;;;;;;;;;;5094576;28;19926;-79
2022/06/02 14:32:27;;;;;;;;;;;;;;;;;;5068137;28;19912;-78
2022/06/02 14:35:13;;;;;;;;;;;;;;;;;;5081003;28;20143;-78
2022/06/02 14:38:00;;;;;;;;;;;;;;;;;;5082492;28;19916;-76
2022/06/02 14:40:46;;;;;;;;;;;;;;;;;;5089650;28;19995;-77
2022/06/02 14:43:35;;;;;;;;;;;;;;;;;;5104520;27;19908;-78
2022/06/02 14:46:24;;;;;;;;;;;;;;;;;;5090189;28;19923;-79
2022/06/02 14:49:10;;;;;;;;;;;;;;;;;;5089944;28;19919;-77
2022/06/02 14:51:57;;;;;;;;;;;;;;;;;;5091282;28;19920;-77
2022/06/02 14:54:43;;;;;;;;;;;;;;;;;;5085175;28;19912;-76
2022/06/02 14:57:30;;;;;;;;;;;;;;;;;;5085824;28;19912;-79
2022/06/02 15:00:17;;;;;;;;;;;;;;;;;;5082661;28;19913;-78
2022/06/02 15:03:04;;;;;;;;;;;;;;;;;;5083222;28;19927;-78
2022/06/02 15:05:51;;;;;;;;;;;;;;;;;;5085648;28;19927;-77
2022/06/02 15:08:37;;;;;;;;;;;;;;;;;;5085382;28;20335;-78
2022/06/02 15:11:25;;;;;;;;;;;;;;;;;;5091565;28;19916;-78
2022/06/02 15:14:12;;;;;;;;;;;;;;;;;;5097883;27;19916;-77
2022/06/02 15:17:02;;;;;;;;;;;;;;;;;;5089873;28;20307;-75
2022/06/02 15:19:49;;;;;;;;;;;;;;;;;;5087358;28;19918;-76
2022/06/02 15:22:38;;;;;;;;;;;;;;;;;;5090161;28;19907;-74
2022/06/02 15:25:27;;;;;;;;;;;;;;;;;;5080783;28;19927;-75
2022/06/02 15:28:13;;;;;;;;;;;;;;;;;;5085722;28;20183;-75
2022/06/02 15:31:00;;;;;;;;;;;;;;;;;;5083183;28;20378;-75
2022/06/02 15:33:46;;;;;;;;;;;;;;;;;;5081261;28;19916;-74
2022/06/02 15:36:33;;;;;;;;;;;;;;;;;;5084741;28;19935;-77
2022/06/02 15:39:19;;;;;;;;;;;;;;;;;;5084232;28;20368;-76
2022/06/02 15:42:07;;;;;;;;;;;;;;;;;;5087092;28;19918;-78
2022/06/02 15:44:53;;;;;;;;;;;;;;;;;;5088934;28;19951;-77
2022/06/02 15:47:40;;;;;;;;;;;;;;;;;;5083537;28;19919;-77
2022/06/02 15:50:28;;;;;;;;;;;;;;;;;;5089676;28;19923;-78
2022/06/02 15:53:15;;;;;;;;;;;;;;;;;;5088661;28;19919;-77
2022/06/02 15:56:02;;;;;;;;;;;;;;;;;;5097939;28;19915;-77
2022/06/02 15:58:48;;;;;;;;;;;;;;;;;;5088683;28;20367;-77
2022/06/02 16:01:35;;;;;;;;;;;;;;;;;;5088977;28;19912;-78
2022/06/02 16:04:21;;;;;;;;;;;;;;;;;;5088419;28;19916;-80
2022/06/02 16:07:08;;;;;;;;;;;;;;;;;;5085557;28;19935;-77
2022/06/02 16:13:00;;;;;;;;;;;;;;;;;;5091229;28;19912;-77
2022/06/02 16:15:49;;;;;;;;;;;;;;;;;;5100971;28;19918;-77
2022/06/02 16:18:35;;;;;;;;;;;;;;;;;;5101303;28;19900;-75
2022/06/02 16:21:22;;;;;;;;;;;;;;;;;;5108989;28;19938;-79
2022/06/02 16:24:09;;;;;;;;;;;;;;;;;;5100846;28;19924;-78
2022/06/02 16:26:56;;;;;;;;;;;;;;;;;;5122095;27;19920;-77
2022/06/02 16:29:43;;;;;;;;;;;;;;;;;;5081989;28;19916;-76
2022/06/02 16:32:30;;;;;;;;;;;;;;;;;;5082520;28;19912;-78
2022/06/02 16:35:16;;;;;;;;;;;;;;;;;;5089947;28;19923;-77
2022/06/02 16:38:03;;;;;;;;;;;;;;;;;;5089511;28;19923;-79
2022/06/02 16:40:49;;;;;;;;;;;;;;;;;;5086086;28;20431;-77
2022/06/02 16:43:36;;;;;;;;;;;;;;;;;;5093143;28;19911;-77
2022/06/02 16:46:22;;;;;;;;;;;;;;;;;;5103574;28;19973;-77
2022/06/02 16:49:09;;;;;;;;;;;;;;;;;;5104331;28;19926;-76
2022/06/02 16:51:56;;;;;;;;;;;;;;;;;;5101879;28;19912;-75
2022/06/02 16:54:42;;;;;;;;;;;;;;;;;;5110893;28;19911;-77
2022/06/02 16:57:29;;;;;;;;;;;;;;;;;;5107948;28;19896;-77
2022/06/02 17:00:15;;;;;;;;;;;;;;;;;;5088586;28;19923;-76
2022/06/02 17:03:02;;;;;;;;;;;;;;;;;;5088971;28;19912;-76
2022/06/02 17:05:48;;;;;;;;;;;;;;;;;;5099790;28;20261;-75
2022/06/02 17:08:35;;;;;;;;;;;;;;;;;;5085271;28;19912;-75
2022/06/02 17:11:21;;;;;;;;;;;;;;;;;;5086692;28;19916;-75
2022/06/02 17:14:07;;;;;;;;;;;;;;;;;;5084886;28;20275;-76
2022/06/02 17:16:54;;;;;;;;;;;;;;;;;;5099562;28;19916;-76
2022/06/02 17:19:40;;;;;;;;;;;;;;;;;;5080815;28;19915;-76
2022/06/02 17:22:27;;;;;;;;;;;;;;;;;;5092864;28;19923;-76
2022/06/02 17:25:13;;;;;;;;;;;;;;;;;;5088530;28;19920;-76
2022/06/02 17:28:00;;;;;;;;;;;;;;;;;;5088478;28;20502;-76
2022/06/02 17:30:47;;;;;;;;;;;;;;;;;;5089442;28;19912;-77
2022/06/02 17:33:33;;;;;;;;;;;;;;;;;;5088142;28;19982;-76
2022/06/02 17:36:20;;;;;;;;;;;;;;;;;;5088589;28;19927;-77
2022/06/02 17:39:06;;;;;;;;;;;;;;;;;;5088493;28;19916;-77
2022/06/02 17:41:53;;;;;;;;;;;;;;;;;;5088178;28;20314;-76
2022/06/02 17:44:40;;;;;;;;;;;;;;;;;;5090839;28;19916;-76
2022/06/02 17:47:26;;;;;;;;;;;;;;;;;;5083749;28;19915;-77
2022/06/02 17:50:13;;;;;;;;;;;;;;;;;;5088055;28;19947;-76
2022/06/02 17:53:02;;;;;;;;;;;;;;;;;;5092066;28;19920;-80
2022/06/02 17:55:51;;;;;;;;;;;;;;;;;;5099007;27;20279;-79
2022/06/02 17:58:37;;;;;;;;;;;;;;;;;;5092800;28;20397;-80
2022/06/02 18:01:24;;;;;;;;;;;;;;;;;;5094129;28;19908;-81
2022/06/02 18:04:11;;;;;;;;;;;;;;;;;;5090116;28;19915;-80
2022/06/02 18:06:57;;;;;;;;;;;;;;;;;;5095191;28;19916;-82
2022/06/02 18:09:44;;;;;;;;;;;;;;;;;;5090781;28;19916;-82
2022/06/02 18:12:30;;;;;;;;;;;;;;;;;;5087922;28;19915;-80
2022/06/02 18:15:17;;;;;;;;;;;;;;;;;;5086486;28;19916;-78
2022/06/02 18:18:03;;;;;;;;;;;;;;;;;;5083531;28;19917;-76
2022/06/02 18:20:50;;;;;;;;;;;;;;;;;;5088586;28;19912;-78
2022/06/02 18:23:36;;;;;;;;;;;;;;;;;;5093220;28;19913;-78
2022/06/02 18:26:23;;;;;;;;;;;;;;;;;;5094832;28;20508;-79
2022/06/02 18:29:10;;;;;;;;;;;;;;;;;;5090132;28;19923;-77
2022/06/02 18:31:56;;;;;;;;;;;;;;;;;;5090932;28;20387;-79
2022/06/02 18:34:43;;;;;;;;;;;;;;;;;;5090140;28;19935;-78
2022/06/02 18:37:29;;;;;;;;;;;;;;;;;;5075614;28;19919;-80
2022/06/02 18:40:16;;;;;;;;;;;;;;;;;;5108055;27;19916;-80
2022/06/02 18:43:02;;;;;;;;;;;;;;;;;;5092433;28;19908;-80
2022/06/02 18:45:49;;;;;;;;;;;;;;;;;;5103119;28;19927;-77
2022/06/02 18:48:38;;;;;;;;;;;;;;;;;;5092480;28;19922;-79
2022/06/02 18:51:25;;;;;;;;;;;;;;;;;;5091397;28;20424;-78
2022/06/02 18:54:14;;;;;;;;;;;;;;;;;;5089192;28;19912;-79
2022/06/02 18:57:00;;;;;;;;;;;;;;;;;;5090315;28;19970;-79
2022/06/02 18:59:50;;;;;;;;;;;;;;;;;;5092439;28;20591;-78
2022/06/02 19:02:36;;;;;;;;;;;;;;;;;;5080327;28;19922;-76
2022/06/02 19:05:26;;;;;;;;;;;;;;;;;;5095876;28;19924;-79
2022/06/02 19:14:27;;;;;;;;;;;;;;;;;;5101601;28;19912;-79
2022/06/02 19:17:13;;;;;;;;;;;;;;;;;;5101800;28;19918;-79